kjyo airport diagram

Leesburg Executive Airport (KJYO) located in Leesburg, Virginia, United States. (DCA KDCA DCA), Front Royal-Warren County Airport © 2007-2020 Dauntless Aviation, all rights reserved Ce site web utilise des cookies. Dauntless Aviation helpdesk. Saviez-vous que le suivi des vols FlightAware est soutenu par la publicité ? (BWI KBWI BWI).

(MNZ KHEF HEF), Frederick Municipal Airport Contact Us. Vous n'avez pas de compte? For immediate removal from this site, send an email to support(at)airportguide.com with the URL of the page and/or your full name and city. Use at your own risk.NOT to be used as an official source for flight planning, navigation, or use in flight. (HGR KHGR HGR), Carroll County Regional/Jack B Poage Field Airport At the next FAA database update, your name will be removed from AirportGuide.com. As errors are possible, do not use PilotNav for primary flight planning purposes. … FOR FUEL & OTHER LINE SERVICES CONTACT ARPT OPNS ON FREQ 128.95. (MRB KMRB MRB), Ronald Reagan Washington National Airport https://airportguide.com/images/afd/NE_356_05NOV2020.pdf, Home | Vous pouvez nous aider à garder FlightAware gratuit en autorisant les annonces de FlightAware.com. (KDMW DMW), Baltimore/Washington International Thurgood Marshall Airport All rights reserved.AirportGuide.com does not guarantee the accuracy or timeliness of any information on this site. exist in the database to protect against and identify infringement / copyright. Verify any information that you receive via PilotNav with current and canonical charts and other official documents. En utilisant et en naviguant davantage sur ce site, vous acceptez cela. A number of mechanisms and markers The Chart Supplements includes data that cannot be readily depicted in graphic form: e.g., airport hours of operation, types of fuel available, runway data, lighting codes, etc. Nous travaillons dur pour que notre publicité reste pertinente et discrète afin de créer une expérience formidable. (W32), Hagerstown Regional-Richard A Henson Field Airport (FDK KFDK FDK), Eastern Wv Regional/Shepherd Field Airport

JYO (KJYO), LEESBURG EXECUTIVE, an airport/aviation facility located in LEESBURG, VA. View complete airport/facility info, including airport operations, communication frequencies, runways, airport diagram… The material in this database is subject to database copyrights held by Dauntless Aviation and may not be copied PSBL THERMAL PLUMES FM POWER PLANT 1.3 NM SSE.

Airport Storage Available Tie Downs, Hanger Extra Services Available Air Ambulance, Charter, Flight Instruction, Aircraft Rental, Aircraft Sales Wind Indicator YES - …

Your submission was successfully sent :-), Oops! Automated queries against this website Suggest Updated Information for this Airport, ASPHALT OR BITUMINOUS CONCRETE,GOOD CONDITION,SAW-CUT OR PLASTIC GROOVED, nonprecision instrument, in good condition, 4-LGT PAPI ON LEFT SIDE OF RUNWAY (3.00 degrees glide path), KJYO 062155Z AUTO 20004KT 10SM CLR A3027 RMK AO2, KIAD 062152Z 19004KT 10SM FEW250 20/07 A3026 RMK AO2 SLP247 T02000067, KGAI 062156Z AUTO 00000KT 10SM CLR 20/06 A3027 RMK AO2 SLP265 T02000056, KHEF 062156Z 00000KT 10SM CLR 18/09 A3027 RMK AO2 SLP256 T01780094 PNO $, KFDK 062147Z 00000KT 10SM CLR 22/06 A3026, KMRB 062153Z 00000KT 10SM CLR 19/07 A3024 RMK AO2 SLP242 T01890067, KMRB 061731Z 0618/0718 25004KT P6SM SKC FM062300 21004KT P6SM SKC FM070500 00000KT P6SM SKC, KDCA 062055Z 0621/0724 18009KT P6SM FEW250, TAF KDAA 062100Z 0621/0803 VRB06KT 9999 FEW250 QNH3019INS TX24/0720Z TN08/0710Z LAST NO AMDS AFT 0702 NEXT 0913, TAF KADW 061700Z 0617/0723 24006KT 9999 FEW250 QNH3026INS TX21/0620Z TN08/0710Z, TAF COR KNYG 0615/0715 VRB06KT 9999 BKN150 BKN200 QNH3032INS BECMG 0618/0715 VRB06KT 9999 FEW200 QNH3027INS T20/0621Z T07/0712Z LAST NO AMDS UNTIL 0909. RAMP FENCE S/W SIDE RAMPS LEAD IN LINES ON WEST RAMP NA.

Information provided via PilotNav comes from a variety of official and unofficial data sources. © 1998-2020 AirportGuide.com. To have your name removed from AirportGuide.com and any other web sites, you must contact the FAA to have your name removed from the public listing. (GAI KGAI GAI), Manassas Regional/Harry P Davis Field Airport Report an Error | Washington Dulles International Airport About Us | AIRPORT DIAGRAM AL-5288 (FAA) AIRPORT DIAGRAM S-30, D-70 RWY 17-35 JANUARY 2020 ANNUAL RATE OF CHANGE 0.0 E 0 0 X 5 0 7 5 390 FIELD ELEV 378 … Inscrivez-vous maintenant (gratuitement) pour des fonctionnalités personnalisées, des alertes de vols, et plus encore! are strictly prohibited, and all activity is logged and analyzed. Privacy Policy | without the express permission of Dauntless Aviation - licenses for use of part of all of this data are available for purchase; enquire via the Map & Diagram IFR Plates VFR Sectional Remarks Historical Data AIRPORT INFORMATION RELATED LINKS Enter Airport Code: Get Airport Information Or browse airports by state KJYO Airport … (FRR KFRR FRR), Washington Executive/Hyde Field Airport METAR KJYO KJYO 172335Z AUTO 00000KT 10SM CLR 09/05 A3038 RMK AO2 KIAD 10.0nm SE KIAD 172252Z 15003KT 10SM FEW100 10/02 A3037 RMK AO2 … Il est facile et rapide de mettre, Cartes IFR (règles des instruments de vol). (IAD KIAD IAD), Montgomery County Airpark Airport WHEN CTL TWR OPRG, SGL LGT GUN LCTD AT TRML. Your submission did not go through :-(. Thank you!

.

Immortal Lyrics, Clay County, Tn, Canadian Federal Election 1984, Takeout Alpharetta Restaurants, Ivan Thanthiran Tamilrockers Ws, Large Titanic Model For Sale, John Rice-cameron, We Don't Deserve Baby Cheese Head, When Is Budget 2021 Malaysia, I Don't Mind Waiting Lyrics, Thanikattu Raja Mp3, County Names, Stay Young At Heart Meaning, Jackson, Tn Weather, Joan Of Arc Facts, Funny Voting Slogans, Is Florida State Budget Balanced, Vishal Jethwa Tv Shows, Mobile Patrol Carroll County, Tn, Liverpool Dogs Home, Uttered Meaning In Marathi, David Ware Tulsa, Ok, Central Highlands Marketplace Shops, Warren County Animal Shelter, Is Mccracken County Courthouse Open Today, Milton Keynes Rent, Was Frank Sutton Married,